Fig, North Carolina
Current Conditions -  °F | °C
As of 6:55 PM on Friday 31 Oct 2014 (Local Time) from KGEV Reporting Station
Overcast Overcast  
Wind Chill: 36°   Ceiling: 2000
Heat Index: 41°   Visibility: 10mi
Dew Point: 34°   Wind: 7mph
Humidity: 77%   Direction: 300°WNW
Pressure: 29.8"   Gusts: NA
Location:  36.4481°N, 81.6486°W
Report Text: KGEV 312255Z AUTO 30006KT 10SM BKN020 OVC055 05/01 A2980 RMK AO2 T00480010
Loading
Personal Weather Stations






























Interactive Weather Map
Tropical Storm Tracking
New forecast layout! Learn more

10-Day Weather Forecast

Advertisements
Track Severe Weather on mobile